Time;durP1;ratioP1;P1;durP2;ratioP2;P2;SDS_P1;SDS_P2;PMS_P1;PMS_P2;Temp;Humidity;BMP_temperature;BMP_pressure;BME280_temperature;BME280_humidity;BME280_pressure;Samples;Min_cycle;Max_cycle;Signal;HPM_P1;HPM_P2
2021/09/25 00:01:12;;;;;;;24.37;12.23;;;13.70;99.10;;;;;;4992288;28;20187;-85
2021/09/25 00:03:38;;;;;;;20.47;10.30;;;13.60;99.10;;;;;;4992205;28;20246;-85
2021/09/25 00:06:04;;;;;;;18.97;10.87;;;13.60;99.10;;;;;;4992255;28;20237;-86
2021/09/25 00:08:29;;;;;;;29.20;10.90;;;13.60;99.10;;;;;;4992238;28;20189;-85
2021/09/25 00:10:55;;;;;;;19.70;11.30;;;13.60;99.10;;;;;;4992240;28;20174;-84
2021/09/25 00:13:21;;;;;;;24.30;11.43;;;13.50;99.10;;;;;;4992136;28;20174;-86
2021/09/25 00:15:47;;;;;;;21.77;11.47;;;13.50;99.10;;;;;;4992109;28;20206;-85
2021/09/25 00:18:12;;;;;;;26.07;13.37;;;13.50;99.10;;;;;;4992213;28;20410;-86
2021/09/25 00:20:39;;;;;;;28.17;12.07;;;13.40;99.10;;;;;;4992054;28;20514;-85
2021/09/25 00:23:05;;;;;;;26.13;12.60;;;13.40;99.10;;;;;;4992251;28;20411;-85
2021/09/25 00:25:31;;;;;;;24.90;12.15;;;13.30;99.10;;;;;;4991943;28;20235;-85
2021/09/25 00:27:57;;;;;;;21.40;11.70;;;13.30;99.10;;;;;;4991950;28;20214;-85
2021/09/25 00:30:23;;;;;;;26.05;12.20;;;13.30;99.10;;;;;;4992025;28;20174;-85
2021/09/25 00:32:49;;;;;;;27.20;13.15;;;13.30;99.10;;;;;;4991935;28;20619;-86
2021/09/25 00:35:16;;;;;;;24.92;12.95;;;13.30;99.10;;;;;;4993741;28;20598;-81
2021/09/25 00:37:42;;;;;;;27.67;12.80;;;13.30;99.10;;;;;;4998557;28;20737;-81
2021/09/25 00:40:10;;;;;;;26.52;10.85;;;13.40;99.10;;;;;;4998756;28;20831;-81
2021/09/25 00:42:36;;;;;;;24.95;12.02;;;13.30;99.10;;;;;;4998537;28;20732;-81
2021/09/25 00:45:04;;;;;;;20.43;10.90;;;13.30;99.10;;;;;;4997884;28;20289;-81
2021/09/25 00:47:30;;;;;;;30.40;13.15;;;13.30;99.10;;;;;;4998249;28;20437;-80
2021/09/25 00:49:56;;;;;;;24.33;12.40;;;13.30;99.10;;;;;;4998239;28;20175;-80
2021/09/25 00:52:22;;;;;;;26.17;11.90;;;13.30;99.10;;;;;;4998278;28;20241;-81
2021/09/25 00:54:48;;;;;;;22.05;11.18;;;13.30;99.10;;;;;;4998160;28;20414;-81
2021/09/25 00:57:22;;;;;;;25.55;12.30;;;13.40;99.10;;;;;;4997477;28;20570;-81
2021/09/25 00:59:48;;;;;;;31.48;13.38;;;13.30;99.10;;;;;;4997744;28;20261;-80
2021/09/25 01:02:17;;;;;;;25.98;12.70;;;13.30;99.10;;;;;;4998086;28;20206;-81
2021/09/25 01:04:45;;;;;;;28.20;12.05;;;13.30;99.10;;;;;;4998259;28;20203;-80
2021/09/25 01:07:11;;;;;;;23.92;12.05;;;13.30;99.10;;;;;;4997955;28;20652;-81
2021/09/25 01:09:37;;;;;;;28.30;12.10;;;13.30;99.10;;;;;;4997698;28;20179;-81
2021/09/25 01:12:03;;;;;;;25.80;13.90;;;13.30;99.10;;;;;;4997787;28;20406;-81
2021/09/25 01:14:31;;;;;;;31.48;12.80;;;13.30;99.10;;;;;;4998146;28;20636;-80
2021/09/25 01:17:23;;;;;;;27.10;12.27;;;13.20;99.10;;;;;;4998813;28;20293;-80
2021/09/25 01:19:49;;;;;;;32.42;12.63;;;13.20;99.10;;;;;;4993834;28;20210;-81
2021/09/25 01:22:15;;;;;;;26.20;12.83;;;13.10;99.10;;;;;;4999218;28;20171;-80
2021/09/25 01:24:41;;;;;;;26.15;12.52;;;13.10;99.10;;;;;;4997497;28;20250;-80
2021/09/25 01:27:07;;;;;;;27.10;13.40;;;13.10;99.10;;;;;;4998500;28;20853;-80
2021/09/25 01:29:33;;;;;;;27.35;12.98;;;13.10;99.10;;;;;;4998566;28;20406;-80
2021/09/25 01:31:59;;;;;;;22.50;12.05;;;13.00;99.10;;;;;;4998488;28;20270;-80
2021/09/25 01:34:25;;;;;;;28.83;12.50;;;13.00;99.10;;;;;;4997217;28;20278;-80
2021/09/25 01:36:52;;;;;;;25.53;12.70;;;12.90;99.10;;;;;;4996597;28;20520;-80
2021/09/25 01:39:18;;;;;;;27.00;12.43;;;12.90;99.10;;;;;;4997279;28;20457;-81
2021/09/25 01:41:44;;;;;;;23.55;11.52;;;12.90;99.10;;;;;;4997529;28;20201;-81
2021/09/25 01:44:10;;;;;;;28.98;11.55;;;12.90;99.10;;;;;;4998093;28;20761;-80
2021/09/25 01:46:36;;;;;;;31.40;13.73;;;12.90;99.10;;;;;;4996900;28;20202;-81
2021/09/25 01:49:02;;;;;;;24.90;12.53;;;12.80;99.10;;;;;;4998305;28;20171;-81
2021/09/25 01:51:28;;;;;;;26.63;13.07;;;12.80;99.10;;;;;;4998140;28;20572;-81
2021/09/25 01:53:54;;;;;;;25.43;11.40;;;12.80;99.10;;;;;;4998196;28;20186;-81
2021/09/25 01:56:20;;;;;;;24.48;11.82;;;12.70;99.10;;;;;;4998818;28;20195;-81
2021/09/25 01:58:46;;;;;;;26.27;12.33;;;12.70;99.10;;;;;;4998497;28;20210;-81
2021/09/25 02:01:13;;;;;;;18.73;10.17;;;12.70;99.10;;;;;;4996866;28;20414;-80
2021/09/25 02:03:39;;;;;;;21.75;11.68;;;12.60;99.10;;;;;;4996403;28;20512;-81
2021/09/25 02:06:10;;;;;;;24.35;11.32;;;12.60;99.10;;;;;;4996614;28;20187;-81
2021/09/25 02:08:37;;;;;;;22.45;10.95;;;12.60;99.10;;;;;;4996859;28;20167;-80
2021/09/25 02:11:04;;;;;;;21.65;11.73;;;12.60;99.10;;;;;;4997365;28;20713;-80
2021/09/25 02:13:31;;;;;;;22.08;11.38;;;12.60;99.10;;;;;;4997460;28;20174;-81
2021/09/25 02:15:57;;;;;;;25.60;12.88;;;12.50;99.10;;;;;;4998004;28;20207;-80
2021/09/25 02:18:23;;;;;;;24.05;12.38;;;12.50;99.10;;;;;;4998532;28;20176;-80
2021/09/25 02:20:49;;;;;;;25.35;11.48;;;12.50;99.10;;;;;;4997224;28;20171;-80
2021/09/25 02:23:15;;;;;;;25.42;11.38;;;12.60;99.10;;;;;;4998472;28;20635;-81
2021/09/25 02:25:41;;;;;;;28.40;12.10;;;12.40;99.10;;;;;;4995891;28;20203;-81
2021/09/25 02:28:07;;;;;;;23.67;11.90;;;12.40;99.10;;;;;;4996229;28;20650;-80
2021/09/25 02:30:33;;;;;;;25.53;10.47;;;12.40;99.10;;;;;;4997926;28;20167;-80
2021/09/25 02:32:59;;;;;;;27.00;11.13;;;12.50;99.10;;;;;;4997498;28;20174;-81
2021/09/25 02:35:24;;;;;;;22.80;10.30;;;12.50;99.10;;;;;;4996129;28;20454;-80
2021/09/25 02:37:51;;;;;;;25.30;11.60;;;12.50;99.10;;;;;;4996501;28;20772;-80
2021/09/25 02:40:19;;;;;;;22.92;10.65;;;12.50;99.10;;;;;;4995603;28;20422;-80
2021/09/25 02:42:45;;;;;;;28.20;11.85;;;12.40;99.10;;;;;;4995254;28;20260;-80
2021/09/25 02:45:13;;;;;;;23.98;10.65;;;12.40;99.10;;;;;;4995804;28;20203;-80
2021/09/25 02:47:40;;;;;;;30.88;13.27;;;12.40;99.10;;;;;;4996275;28;20171;-80
2021/09/25 02:50:07;;;;;;;23.60;9.75;;;12.40;99.10;;;;;;4996647;28;20182;-81
2021/09/25 02:52:33;;;;;;;22.73;11.23;;;12.40;99.10;;;;;;4995723;28;20171;-81
2021/09/25 02:54:59;;;;;;;22.80;10.17;;;12.40;99.10;;;;;;4994780;28;20667;-81
2021/09/25 02:57:25;;;;;;;24.33;11.50;;;12.40;99.10;;;;;;4995688;28;20666;-81
2021/09/25 02:59:51;;;;;;;17.85;9.90;;;12.40;99.10;;;;;;4995690;28;20422;-81
2021/09/25 03:02:17;;;;;;;32.57;11.67;;;12.40;99.10;;;;;;4996433;28;20686;-81
2021/09/25 03:04:42;;;;;;;20.13;10.30;;;12.40;99.10;;;;;;4995374;28;20287;-80
2021/09/25 03:07:08;;;;;;;17.37;9.23;;;12.40;99.10;;;;;;4995689;28;20683;-81
2021/09/25 03:09:34;;;;;;;22.30;10.60;;;12.30;99.10;;;;;;4995459;28;20171;-80
2021/09/25 03:12:04;;;;;;;22.15;9.85;;;12.30;99.10;;;;;;4995602;28;20178;-81
2021/09/25 03:14:29;;;;;;;21.58;10.40;;;12.30;99.10;;;;;;4995979;28;20167;-81
2021/09/25 03:16:55;;;;;;;24.30;10.17;;;12.20;99.10;;;;;;4995845;28;20555;-81
2021/09/25 03:19:21;;;;;;;24.50;11.07;;;12.20;99.10;;;;;;4995616;28;20419;-81
2021/09/25 03:21:47;;;;;;;26.27;10.90;;;12.20;99.10;;;;;;4995636;28;20450;-81
2021/09/25 03:24:13;;;;;;;19.10;9.60;;;12.10;99.10;;;;;;4995070;28;20238;-81
2021/09/25 03:26:38;;;;;;;21.15;10.40;;;12.10;99.10;;;;;;4995144;28;20430;-81
2021/09/25 03:29:04;;;;;;;23.93;9.70;;;12.10;99.10;;;;;;4996766;28;20225;-80
2021/09/25 03:31:31;;;;;;;21.63;10.65;;;12.10;99.10;;;;;;4995188;28;20915;-81
2021/09/25 03:33:56;;;;;;;27.40;11.38;;;12.10;99.10;;;;;;4994267;28;20182;-81
2021/09/25 03:36:22;;;;;;;21.37;10.43;;;12.20;99.10;;;;;;4995968;28;20575;-81
2021/09/25 03:38:49;;;;;;;22.52;9.35;;;12.20;99.10;;;;;;4994642;28;20580;-81
2021/09/25 03:41:14;;;;;;;16.52;9.10;;;12.20;99.10;;;;;;4994418;28;20179;-81
2021/09/25 03:43:40;;;;;;;20.87;10.33;;;12.20;99.10;;;;;;4994724;28;20203;-81
2021/09/25 03:46:06;;;;;;;23.50;12.00;;;12.10;99.10;;;;;;4994378;28;20657;-80
2021/09/25 03:48:32;;;;;;;23.37;10.53;;;12.10;99.10;;;;;;4995481;28;20502;-81
2021/09/25 03:50:58;;;;;;;17.53;9.60;;;12.10;99.10;;;;;;4993602;28;20171;-80
2021/09/25 03:53:24;;;;;;;16.17;9.50;;;12.00;99.10;;;;;;4993223;28;20600;-80
2021/09/25 03:55:50;;;;;;;19.50;9.43;;;11.90;99.10;;;;;;4993220;28;20191;-80
2021/09/25 03:58:16;;;;;;;19.40;10.00;;;12.00;99.10;;;;;;4993024;28;20274;-80
2021/09/25 04:00:42;;;;;;;22.75;11.48;;;12.00;99.10;;;;;;4993139;28;20989;-80
2021/09/25 04:03:12;;;;;;;24.23;9.90;;;11.90;99.10;;;;;;4993330;28;20198;-80
2021/09/25 04:05:39;;;;;;;19.88;9.57;;;11.90;99.10;;;;;;4992916;28;20218;-80
2021/09/25 04:08:05;;;;;;;18.23;8.63;;;11.80;99.10;;;;;;4993311;28;20179;-80
2021/09/25 04:10:31;;;;;;;22.77;9.45;;;11.80;99.10;;;;;;4992660;28;20198;-80
2021/09/25 04:12:57;;;;;;;20.25;9.90;;;11.80;99.10;;;;;;4992218;28;20203;-80
2021/09/25 04:15:23;;;;;;;21.93;9.20;;;11.70;99.10;;;;;;4992591;28;20199;-81
2021/09/25 04:17:50;;;;;;;19.50;10.50;;;11.70;99.10;;;;;;4992726;28;20922;-80
2021/09/25 04:20:16;;;;;;;20.13;10.73;;;11.60;99.10;;;;;;4993241;28;20422;-80
2021/09/25 04:22:42;;;;;;;21.75;9.70;;;11.60;99.10;;;;;;4993747;28;20198;-80
2021/09/25 04:25:08;;;;;;;21.80;9.73;;;11.50;99.10;;;;;;4994142;28;20342;-80
2021/09/25 04:27:34;;;;;;;17.67;8.70;;;11.50;99.10;;;;;;4993682;28;20457;-82
2021/09/25 04:30:02;;;;;;;22.07;9.83;;;11.50;99.10;;;;;;4993360;28;20171;-82
2021/09/25 04:32:29;;;;;;;23.13;10.75;;;11.50;99.10;;;;;;4993255;28;20547;-82
2021/09/25 04:34:55;;;;;;;20.70;10.57;;;11.40;99.10;;;;;;4993054;28;20179;-82
2021/09/25 04:37:21;;;;;;;22.00;10.32;;;11.40;99.10;;;;;;4993168;28;20658;-82
2021/09/25 04:39:47;;;;;;;18.55;10.20;;;11.30;99.10;;;;;;4993295;28;20183;-82
2021/09/25 04:42:14;;;;;;;18.27;9.50;;;11.30;99.10;;;;;;4993655;28;20516;-82
2021/09/25 04:44:39;;;;;;;23.70;10.23;;;11.30;99.10;;;;;;4992738;28;20461;-80
2021/09/25 04:47:05;;;;;;;24.57;10.40;;;11.30;99.10;;;;;;4992798;28;20195;-80
2021/09/25 04:49:31;;;;;;;19.33;9.55;;;11.20;99.10;;;;;;4993032;28;20499;-80
2021/09/25 04:51:57;;;;;;;29.63;10.60;;;11.20;99.10;;;;;;4992706;28;20630;-81
2021/09/25 04:54:23;;;;;;;24.93;11.27;;;11.20;99.10;;;;;;4992829;28;20651;-80
2021/09/25 04:56:48;;;;;;;27.07;11.87;;;11.20;99.10;;;;;;4993044;28;20525;-80
2021/09/25 04:59:14;;;;;;;24.13;10.40;;;11.20;99.10;;;;;;4992846;28;20500;-80
2021/09/25 05:01:40;;;;;;;25.00;11.67;;;11.20;99.10;;;;;;4992754;28;20592;-80
2021/09/25 05:04:07;;;;;;;23.83;10.70;;;11.20;99.10;;;;;;4993043;28;20249;-80
2021/09/25 05:06:33;;;;;;;21.10;9.95;;;11.20;99.10;;;;;;4993217;28;20251;-80
2021/09/25 05:08:59;;;;;;;20.23;8.40;;;11.20;99.10;;;;;;4993106;28;20175;-79
2021/09/25 05:11:25;;;;;;;21.30;10.00;;;11.20;99.10;;;;;;4993946;28;20410;-80
2021/09/25 05:13:51;;;;;;;25.70;11.03;;;11.30;99.10;;;;;;4993972;28;20179;-80
2021/09/25 05:16:18;;;;;;;22.00;10.30;;;11.30;99.10;;;;;;4993009;28;20811;-80
2021/09/25 05:18:44;;;;;;;16.95;10.18;;;11.20;99.10;;;;;;4992709;28;20642;-80
2021/09/25 05:21:10;;;;;;;26.15;11.40;;;11.30;99.10;;;;;;4994177;28;20233;-80
2021/09/25 05:23:35;;;;;;;23.92;9.93;;;11.30;99.10;;;;;;4996160;28;20217;-80
2021/09/25 05:26:03;;;;;;;19.93;10.07;;;11.30;99.10;;;;;;4996071;28;20191;-80
2021/09/25 05:28:29;;;;;;;23.08;10.95;;;11.20;99.10;;;;;;4996739;28;20175;-80
2021/09/25 05:30:55;;;;;;;26.43;11.30;;;11.20;99.10;;;;;;4996727;28;20698;-80
2021/09/25 05:33:21;;;;;;;35.60;12.35;;;11.20;99.10;;;;;;4996825;28;20398;-80
2021/09/25 05:35:47;;;;;;;23.05;11.60;;;11.10;99.10;;;;;;4996293;28;20242;-80
2021/09/25 05:38:13;;;;;;;26.80;11.83;;;11.10;99.10;;;;;;4996763;28;20175;-80
2021/09/25 05:40:39;;;;;;;18.90;10.52;;;11.10;99.10;;;;;;4996777;28;20476;-80
2021/09/25 05:43:05;;;;;;;25.13;11.67;;;11.10;99.10;;;;;;4996284;28;20656;-80
2021/09/25 05:45:30;;;;;;;25.80;11.47;;;11.10;99.10;;;;;;4996362;28;20824;-80
2021/09/25 05:47:56;;;;;;;23.20;10.40;;;11.10;99.10;;;;;;4996379;28;20446;-79
2021/09/25 05:50:22;;;;;;;27.47;11.50;;;11.10;99.10;;;;;;4996125;28;20171;-80
2021/09/25 05:52:48;;;;;;;24.33;11.48;;;11.10;99.10;;;;;;4995839;28;20261;-80
2021/09/25 05:55:14;;;;;;;29.03;12.50;;;11.20;99.10;;;;;;4995950;28;20600;-80
2021/09/25 05:57:43;;;;;;;28.57;10.93;;;11.20;99.10;;;;;;4996013;28;20171;-80
2021/09/25 06:00:09;;;;;;;21.70;10.40;;;11.20;99.10;;;;;;4996205;28;20468;-80
2021/09/25 06:02:40;;;;;;;21.67;11.18;;;11.20;99.10;;;;;;4995805;28;20229;-80
2021/09/25 06:05:08;;;;;;;38.42;14.50;;;11.30;99.10;;;;;;4995401;28;20214;-80
2021/09/25 06:07:34;;;;;;;25.58;12.35;;;11.30;99.10;;;;;;4995979;28;20175;-80
2021/09/25 06:09:59;;;;;;;23.20;12.00;;;11.30;99.10;;;;;;4996255;28;20182;-79
2021/09/25 06:12:25;;;;;;;22.17;11.70;;;11.30;99.10;;;;;;4996441;28;20438;-80
2021/09/25 06:14:53;;;;;;;27.53;12.30;;;11.40;99.10;;;;;;4995326;28;20445;-80
2021/09/25 06:17:20;;;;;;;24.95;12.50;;;11.40;99.10;;;;;;4994845;28;20199;-80
2021/09/25 06:19:46;;;;;;;26.67;12.45;;;11.40;99.10;;;;;;4996223;28;20183;-80
2021/09/25 06:22:12;;;;;;;21.20;11.80;;;11.50;99.10;;;;;;4995424;28;20175;-80
2021/09/25 06:24:37;;;;;;;29.33;11.48;;;11.50;99.10;;;;;;4994929;28;20294;-79
2021/09/25 06:27:03;;;;;;;25.27;12.40;;;11.60;99.10;;;;;;4994970;28;20249;-80
2021/09/25 06:29:29;;;;;;;25.23;11.50;;;11.60;99.10;;;;;;4995437;28;20168;-79
2021/09/25 06:31:55;;;;;;;27.77;12.60;;;11.70;99.10;;;;;;4995449;28;20410;-80
2021/09/25 06:34:22;;;;;;;18.90;10.00;;;11.70;99.10;;;;;;4994869;28;20182;-80
2021/09/25 06:36:49;;;;;;;37.05;13.18;;;11.80;99.10;;;;;;4994008;28;21002;-84
2021/09/25 06:39:15;;;;;;;22.55;10.48;;;11.90;99.10;;;;;;4993742;28;20179;-84
2021/09/25 06:41:41;;;;;;;25.08;12.27;;;11.90;99.10;;;;;;4993636;28;20299;-84
2021/09/25 06:44:07;;;;;;;22.27;10.93;;;11.90;99.10;;;;;;4993353;28;20350;-83
2021/09/25 06:46:32;;;;;;;27.50;12.20;;;11.90;99.10;;;;;;4993483;28;21130;-83
2021/09/25 06:48:58;;;;;;;20.87;10.17;;;12.00;99.10;;;;;;4992239;28;20435;-83
2021/09/25 06:51:26;;;;;;;20.70;10.30;;;12.00;99.10;;;;;;4993421;28;20802;-84
2021/09/25 06:53:55;;;;;;;23.25;10.25;;;12.00;99.10;;;;;;4993415;28;20181;-84
2021/09/25 06:56:23;;;;;;;23.77;11.68;;;12.10;99.10;;;;;;4993081;28;20544;-83
2021/09/25 06:58:49;;;;;;;19.27;10.38;;;12.20;99.10;;;;;;4993246;28;20179;-83
2021/09/25 07:01:15;;;;;;;20.63;10.70;;;12.30;99.10;;;;;;4993273;28;20179;-83
2021/09/25 07:03:41;;;;;;;19.73;9.90;;;12.40;99.10;;;;;;4993077;28;20175;-83
2021/09/25 07:06:07;;;;;;;22.10;10.53;;;12.40;99.10;;;;;;4993141;28;20620;-83
2021/09/25 07:08:32;;;;;;;26.67;12.38;;;12.50;99.10;;;;;;4993179;28;20175;-83
2021/09/25 07:10:58;;;;;;;21.37;9.60;;;12.60;99.10;;;;;;4993016;28;20178;-84
2021/09/25 07:13:24;;;;;;;19.17;9.70;;;12.70;99.10;;;;;;4992966;28;20464;-84
2021/09/25 07:15:50;;;;;;;17.42;9.75;;;12.80;99.10;;;;;;4992729;28;20438;-83
2021/09/25 07:18:16;;;;;;;23.55;10.70;;;12.90;99.10;;;;;;4992711;28;20183;-83
2021/09/25 07:20:43;;;;;;;25.93;11.77;;;12.90;99.10;;;;;;4993064;28;20238;-83
2021/09/25 07:23:09;;;;;;;23.00;9.27;;;12.90;99.10;;;;;;4992991;28;20494;-83
2021/09/25 07:25:36;;;;;;;19.40;9.35;;;13.00;99.10;;;;;;4992497;28;20211;-83
2021/09/25 07:28:06;;;;;;;23.48;9.50;;;13.10;98.50;;;;;;4992796;28;20172;-84
2021/09/25 07:30:35;;;;;;;23.90;9.45;;;13.20;98.60;;;;;;4992850;28;20175;-83
2021/09/25 07:33:01;;;;;;;17.88;9.10;;;13.30;98.20;;;;;;4992646;28;20167;-83
2021/09/25 07:35:27;;;;;;;22.17;9.70;;;13.30;97.60;;;;;;4992202;28;20644;-83
2021/09/25 07:37:53;;;;;;;17.70;9.50;;;13.40;97.60;;;;;;4992558;28;20922;-84
2021/09/25 07:40:19;;;;;;;24.55;8.55;;;13.50;97.70;;;;;;4992431;28;20175;-84
2021/09/25 07:42:44;;;;;;;29.40;9.53;;;13.60;97.30;;;;;;4992566;28;20549;-84
2021/09/25 07:45:11;;;;;;;16.07;8.30;;;13.70;97.10;;;;;;4991147;28;20596;-83
2021/09/25 07:47:38;;;;;;;19.05;9.52;;;13.90;96.90;;;;;;4992198;28;20675;-83
2021/09/25 07:50:07;;;;;;;28.08;8.95;;;14.00;96.40;;;;;;4992769;28;20663;-84
2021/09/25 07:52:37;;;;;;;19.02;9.50;;;14.00;96.60;;;;;;4992430;28;20534;-84
2021/09/25 07:55:03;;;;;;;25.17;9.65;;;14.10;96.10;;;;;;4992481;28;20534;-84
2021/09/25 07:57:29;;;;;;;19.25;8.98;;;14.20;95.60;;;;;;4992481;28;20185;-84
2021/09/25 07:59:55;;;;;;;33.07;9.10;;;14.30;96.00;;;;;;4992554;28;20175;-84
2021/09/25 08:02:20;;;;;;;18.40;9.80;;;14.40;95.70;;;;;;5008777;28;20739;-83
2021/09/25 08:04:46;;;;;;;20.13;7.90;;;14.50;95.30;;;;;;4992039;28;20881;-84
2021/09/25 08:07:12;;;;;;;18.50;8.97;;;14.50;94.70;;;;;;4992515;28;20187;-87
2021/09/25 08:09:38;;;;;;;19.30;8.70;;;14.60;95.20;;;;;;4992989;28;20182;-84
2021/09/25 08:12:04;;;;;;;17.17;7.93;;;14.70;94.90;;;;;;4992798;28;20535;-85
2021/09/25 08:14:30;;;;;;;17.05;8.85;;;14.70;94.50;;;;;;4992343;28;20171;-86
2021/09/25 08:16:56;;;;;;;16.03;9.47;;;14.80;94.80;;;;;;4992582;28;20698;-88
2021/09/25 08:19:21;;;;;;;17.77;7.80;;;15.00;94.50;;;;;;4992327;28;20171;-88
2021/09/25 08:21:47;;;;;;;19.63;7.80;;;15.10;94.20;;;;;;4992347;28;20682;-87
2021/09/25 08:24:13;;;;;;;14.60;7.70;;;15.20;94.20;;;;;;4992708;28;20298;-86
2021/09/25 08:26:39;;;;;;;20.57;9.00;;;15.40;93.20;;;;;;4992222;28;20525;-87
2021/09/25 08:29:05;;;;;;;17.77;8.40;;;15.50;93.70;;;;;;4993154;28;20414;-88
2021/09/25 08:31:30;;;;;;;15.10;8.67;;;15.60;92.40;;;;;;4992688;28;20171;-87
2021/09/25 08:33:56;;;;;;;12.53;7.67;;;15.60;92.10;;;;;;4991819;28;20919;-86
2021/09/25 08:36:22;;;;;;;17.80;8.33;;;15.70;92.10;;;;;;4991703;28;20211;-85
2021/09/25 08:38:48;;;;;;;19.23;8.02;;;15.80;92.10;;;;;;4991938;28;20517;-86
2021/09/25 08:41:15;;;;;;;16.67;8.37;;;16.00;91.60;;;;;;4991930;28;20262;-86
2021/09/25 08:43:41;;;;;;;15.13;7.32;;;16.10;92.00;;;;;;4991692;28;20175;-86
2021/09/25 08:46:08;;;;;;;19.60;8.90;;;16.20;91.20;;;;;;4991821;28;20214;-85
2021/09/25 08:48:36;;;;;;;19.40;9.93;;;16.40;91.40;;;;;;4992028;28;20493;-84
2021/09/25 08:51:02;;;;;;;17.08;8.75;;;16.50;91.20;;;;;;4991976;28;20177;-84
2021/09/25 08:53:28;;;;;;;17.20;8.90;;;16.60;90.70;;;;;;4991790;28;20179;-84
2021/09/25 08:55:54;;;;;;;16.87;7.97;;;16.80;90.70;;;;;;4992844;28;20745;-84
2021/09/25 08:58:19;;;;;;;13.50;7.90;;;17.00;89.60;;;;;;4995795;28;20411;-84
2021/09/25 09:00:51;;;;;;;16.60;8.00;;;17.20;88.70;;;;;;4995507;28;20175;-84
2021/09/25 09:03:34;;;;;;;16.50;8.45;;;17.30;89.40;;;;;;4995370;28;20437;-84
2021/09/25 09:06:06;;;;;;;17.73;8.80;;;17.50;87.60;;;;;;4995476;28;20203;-83
2021/09/25 09:08:32;;;;;;;14.00;8.57;;;17.60;87.80;;;;;;4995310;28;20174;-84
2021/09/25 09:10:58;;;;;;;16.20;8.02;;;17.80;87.40;;;;;;4995267;28;20175;-83
2021/09/25 09:13:25;;;;;;;17.40;7.72;;;17.90;88.40;;;;;;4995737;28;20172;-83
2021/09/25 09:15:52;;;;;;;14.00;8.20;;;18.00;85.60;;;;;;4996231;28;20706;-83
2021/09/25 09:18:20;;;;;;;15.07;8.45;;;18.20;85.60;;;;;;4995614;28;20647;-84
2021/09/25 09:21:09;;;;;;;16.00;8.45;;;18.30;86.20;;;;;;4995207;28;20210;-85
2021/09/25 09:23:41;;;;;;;12.65;7.20;;;18.50;85.90;;;;;;4994929;28;20163;-83
2021/09/25 09:26:08;;;;;;;12.63;7.05;;;18.70;85.60;;;;;;4995073;28;20195;-83
2021/09/25 09:28:37;;;;;;;14.10;7.50;;;18.90;83.80;;;;;;4995302;28;20175;-84
2021/09/25 09:31:06;;;;;;;13.27;7.03;;;19.10;84.20;;;;;;4995031;28;20203;-84
2021/09/25 09:34:02;;;;;;;12.73;6.25;;;19.40;83.40;;;;;;4995108;28;20674;-83
2021/09/25 09:36:41;;;;;;;15.45;6.10;;;19.70;81.40;;;;;;4990502;28;20706;-84
2021/09/25 09:39:14;;;;;;;13.57;7.00;;;19.90;81.00;;;;;;4994833;28;20250;-84
2021/09/25 09:41:46;;;;;;;16.08;6.72;;;20.00;80.10;;;;;;4995126;28;20647;-84
2021/09/25 09:44:20;;;;;;;12.02;7.22;;;20.10;79.60;;;;;;4994540;28;20194;-84
2021/09/25 09:46:52;;;;;;;13.02;6.32;;;20.30;78.10;;;;;;4994627;28;20653;-84
2021/09/25 09:49:20;;;;;;;13.15;6.68;;;20.40;77.80;;;;;;4994589;28;20294;-84
2021/09/25 09:51:54;;;;;;;12.43;6.85;;;20.50;77.80;;;;;;4994891;28;20529;-84
2021/09/25 09:54:41;;;;;;;11.55;6.55;;;20.70;76.70;;;;;;4994336;28;20197;-82
2021/09/25 09:57:11;;;;;;;16.42;7.07;;;20.90;76.70;;;;;;4994662;28;20709;-82
2021/09/25 09:59:39;;;;;;;15.32;7.13;;;21.00;76.70;;;;;;4994507;28;20171;-84
2021/09/25 10:02:06;;;;;;;11.70;6.85;;;21.20;76.20;;;;;;4994395;28;20182;-82
2021/09/25 10:04:32;;;;;;;13.02;6.95;;;21.40;76.40;;;;;;4994324;28;20195;-82
2021/09/25 10:06:58;;;;;;;13.45;7.35;;;21.60;74.80;;;;;;4994125;28;20245;-82
2021/09/25 10:09:26;;;;;;;14.60;6.85;;;21.70;74.10;;;;;;4994607;28;20540;-82
2021/09/25 10:12:01;;;;;;;11.25;6.35;;;21.90;72.80;;;;;;4994438;28;20179;-82
2021/09/25 10:14:29;;;;;;;13.23;5.78;;;21.90;72.10;;;;;;4994775;28;20178;-79
2021/09/25 10:16:58;;;;;;;13.23;6.80;;;22.10;72.10;;;;;;4998451;28;20558;-80
2021/09/25 10:19:27;;;;;;;15.85;6.13;;;22.20;70.50;;;;;;4997406;28;20215;-80
2021/09/25 10:22:01;;;;;;;15.68;6.20;;;22.40;72.00;;;;;;4998775;28;20266;-80
2021/09/25 10:24:34;;;;;;;10.75;6.07;;;22.50;71.40;;;;;;4999267;28;20214;-80
2021/09/25 10:27:01;;;;;;;10.32;6.38;;;22.70;72.00;;;;;;4998964;28;20233;-80
2021/09/25 10:29:28;;;;;;;8.93;5.65;;;;;;;;;;4998301;28;20182;-80
2021/09/25 10:32:12;;;;;;;8.70;5.50;;;;;;;;;;4998911;28;20171;-80
2021/09/25 10:34:38;;;;;;;9.05;5.70;;;;;;;;;;4997869;28;20274;-80
2021/09/25 10:37:05;;;;;;;14.82;6.53;;;;;;;;;;4997690;28;20702;-80
2021/09/25 10:39:36;;;;;;;7.63;5.68;;;;;;;;;;4997639;28;20671;-80
2021/09/25 10:42:02;;;;;;;10.15;6.28;;;;;;;;;;4998256;28;20174;-80
2021/09/25 10:44:31;;;;;;;11.85;4.97;;;24.10;62.40;;;;;;4998437;28;20567;-80
2021/09/25 10:47:07;;;;;;;8.43;5.20;;;24.10;61.90;;;;;;4997853;28;20334;-80
2021/09/25 10:49:44;;;;;;;8.00;5.32;;;24.20;63.70;;;;;;4998722;28;20167;-80
2021/09/25 10:52:12;;;;;;;9.43;4.78;;;24.40;61.70;;;;;;4998840;28;20183;-81
2021/09/25 10:54:38;;;;;;;5.70;4.00;;;24.40;60.20;;;;;;4998713;28;20211;-78
2021/09/25 10:57:15;;;;;;;8.35;5.30;;;24.60;58.90;;;;;;4999646;28;20242;-80
2021/09/25 11:00:19;;;;;;;9.48;4.30;;;24.60;60.80;;;;;;4998325;28;20537;-80
2021/09/25 11:02:45;;;;;;;7.53;4.40;;;24.90;60.80;;;;;;4998469;28;20171;-81
2021/09/25 11:05:39;;;;;;;11.53;4.53;;;25.00;59.20;;;;;;4998159;28;20728;-81
2021/09/25 11:08:15;;;;;;;5.75;4.10;;;25.20;59.20;;;;;;4998197;28;20652;-81
2021/09/25 11:11:09;;;;;;;12.77;5.28;;;25.20;59.30;;;;;;4998875;28;20163;-80
2021/09/25 11:14:00;;;;;;;8.70;4.90;;;25.40;59.20;;;;;;4998068;28;20562;-81
2021/09/25 11:16:45;;;;;;;7.22;4.30;;;25.60;56.40;;;;;;4999576;28;20671;-81
2021/09/25 11:19:26;;;;;;;12.85;4.72;;;25.80;57.00;;;;;;4998316;28;20166;-81
2021/09/25 11:21:57;;;;;;;8.43;5.15;;;25.90;57.40;;;;;;4993150;28;20177;-82
2021/09/25 11:24:25;;;;;;;8.02;4.30;;;25.90;56.60;;;;;;4993069;28;20227;-82
2021/09/25 11:26:51;;;;;;;6.90;3.97;;;26.10;57.00;;;;;;4993093;28;20195;-82
2021/09/25 11:29:17;;;;;;;6.47;4.28;;;26.30;56.40;;;;;;4992917;28;20175;-82
2021/09/25 11:31:48;;;;;;;8.73;4.72;;;26.60;55.50;;;;;;4992841;28;20545;-81
2021/09/25 11:34:22;;;;;;;7.00;4.05;;;26.70;55.70;;;;;;4992744;28;20221;-81
2021/09/25 11:36:50;;;;;;;8.93;5.63;;;26.90;55.40;;;;;;4992845;28;20213;-81
2021/09/25 11:39:23;;;;;;;6.85;4.30;;;27.10;55.80;;;;;;4992918;28;20179;-82
2021/09/25 11:42:29;;;;;;;7.20;4.30;;;27.20;56.20;;;;;;4993102;28;20167;-82
2021/09/25 11:45:07;;;;;;;9.73;5.03;;;27.30;55.40;;;;;;4975364;28;20570;-82
2021/09/25 11:47:48;;;;;;;9.65;4.72;;;27.30;54.50;;;;;;4991392;28;20183;-82
2021/09/25 11:50:20;;;;;;;6.28;3.92;;;27.50;55.30;;;;;;4992968;28;20676;-82
2021/09/25 11:52:51;;;;;;;7.40;4.78;;;27.60;56.70;;;;;;4992715;28;20214;-82
2021/09/25 11:55:18;;;;;;;10.93;5.60;;;27.80;55.50;;;;;;4992769;28;20178;-82
2021/09/25 11:57:56;;;;;;;8.45;4.90;;;27.90;54.70;;;;;;4992686;28;20172;-82
2021/09/25 12:00:32;;;;;;;10.27;5.70;;;28.00;54.20;;;;;;4992526;28;20167;-82
2021/09/25 12:02:59;;;;;;;8.23;4.47;;;28.20;53.00;;;;;;4992499;28;20190;-83
2021/09/25 12:05:27;;;;;;;14.52;5.25;;;28.30;54.70;;;;;;4992387;28;20830;-83
2021/09/25 12:07:53;;;;;;;9.40;5.38;;;28.40;52.40;;;;;;4992919;28;20175;-83
2021/09/25 12:10:29;;;;;;;5.90;4.57;;;28.50;53.20;;;;;;4992440;28;20177;-82
2021/09/25 12:13:18;;;;;;;7.45;4.90;;;28.50;54.10;;;;;;4993696;28;20631;-83
2021/09/25 12:15:45;;;;;;;6.00;5.03;;;28.50;53.30;;;;;;4992444;28;20611;-82
2021/09/25 12:18:24;;;;;;;6.93;5.13;;;28.50;52.00;;;;;;4992548;28;20175;-82
2021/09/25 12:21:14;;;;;;;7.07;5.45;;;28.60;53.20;;;;;;4992634;28;20178;-82
2021/09/25 12:23:51;;;;;;;7.50;5.35;;;28.70;51.10;;;;;;4992152;28;20226;-82
2021/09/25 12:26:20;;;;;;;8.43;4.70;;;28.80;51.50;;;;;;4992229;28;20202;-82
2021/09/25 12:28:51;;;;;;;11.35;5.00;;;28.90;50.90;;;;;;4992504;28;20167;-82
2021/09/25 12:31:35;;;;;;;7.78;5.00;;;28.90;50.30;;;;;;4993767;28;20171;-82
2021/09/25 12:34:10;;;;;;;5.95;4.72;;;28.90;53.00;;;;;;4996290;28;20182;-82
2021/09/25 12:36:42;;;;;;;15.48;5.07;;;29.10;51.10;;;;;;4997166;28;20214;-79
2021/09/25 12:39:44;;;;;;;8.02;4.95;;;29.20;50.40;;;;;;4998476;28;20185;-80
2021/09/25 12:42:23;;;;;;;11.63;4.50;;;29.30;49.50;;;;;;4994702;28;20208;-79